sensor_id;sensor_type;location;lat;lon;timestamp;pressure;altitude;pressure_sealevel;temperature;humidity
61740;BME280;47645;45.288;12.038;2023-02-18T00:03:53;1029.408462106907;;;6.920703125;100
61740;BME280;47645;45.288;12.038;2023-02-18T00:13:55;1029.3492058044976;;;7.053125;100
61740;BME280;47645;45.288;12.038;2023-02-18T00:23:54;1029.3164840057902;;;7.1244140625;100
61740;BME280;47645;45.288;12.038;2023-02-18T00:33:56;1029.1294680709211;;;7.1958984375;100
61740;BME280;47645;45.288;12.038;2023-02-18T00:43:55;1029.2322407561205;;;7.4607421875;100
61740;BME280;47645;45.288;12.038;2023-02-18T00:53:55;1029.137837913293;;;7.5474609375;100
61740;BME280;47645;45.288;12.038;2023-02-18T01:03:55;1029.072700666724;;;7.4201171875;100
61740;BME280;47645;45.288;12.038;2023-02-18T01:13:56;1029.0530977428382;;;7.47109375;100
61740;BME280;47645;45.288;12.038;2023-02-18T01:23:57;1029.0352226004484;;;7.506640625;100
61740;BME280;47645;45.288;12.038;2023-02-18T01:33:57;1028.9646736448253;;;7.5525390625;100
61740;BME280;47645;45.288;12.038;2023-02-18T01:44:17;1028.9417529033533;;;7.5322265625;100
61740;BME280;47645;45.288;12.038;2023-02-18T01:54:01;1028.7036090891283;;;7.5474609375;100
61740;BME280;47645;45.288;12.038;2023-02-18T02:03:58;1028.7372770445772;;;7.5474609375;100
61740;BME280;47645;45.288;12.038;2023-02-18T02:14:07;1028.6535192309425;;;7.5015625;100
61740;BME280;47645;45.288;12.038;2023-02-18T02:25:12;1028.6078742380257;;;7.690234375;100
61740;BME280;47645;45.288;12.038;2023-02-18T02:34:20;1028.650165793316;;;7.5220703125;100
61740;BME280;47645;45.288;12.038;2023-02-18T02:44:10;1028.5059709958782;;;7.623828125;100
61740;BME280;47645;45.288;12.038;2023-02-18T02:54:10;1028.4997861076213;;;7.6392578125;100
61740;BME280;47645;45.288;12.038;2023-02-18T03:04:13;1028.4243316287968;;;7.715625;100
61740;BME280;47645;45.288;12.038;2023-02-18T03:14:08;1028.3391640404707;;;7.68515625;100
61740;BME280;47645;45.288;12.038;2023-02-18T03:24:06;1028.2580215245798;;;7.5169921875;100
61740;BME280;47645;45.288;12.038;2023-02-18T03:34:04;1028.2907130130657;;;7.5373046875;100
61740;BME280;47645;45.288;12.038;2023-02-18T03:44:06;1028.2267614023262;;;7.358984375;100
61740;BME280;47645;45.288;12.038;2023-02-18T03:54:03;1028.3093569887542;;;7.2314453125;100
61740;BME280;47645;45.288;12.038;2023-02-18T04:04:04;1028.2140429478056;;;7.2416015625;100
61740;BME280;47645;45.288;12.038;2023-02-18T04:14:04;1028.391510714133;;;7.06328125;100
61740;BME280;47645;45.288;12.038;2023-02-18T04:24:04;1028.4942391211116;;;7.0837890625;100
61740;BME280;47645;45.288;12.038;2023-02-18T04:34:04;1028.4535813043567;;;7.0224609375;100
61740;BME280;47645;45.288;12.038;2023-02-18T04:44:05;1028.3441929678293;;;7.399609375;100
61740;BME280;47645;45.288;12.038;2023-02-18T04:54:05;1028.3142172149087;;;7.3283203125;100
61740;BME280;47645;45.288;12.038;2023-02-18T05:04:05;1028.2526222063188;;;7.4302734375;100
61740;BME280;47645;45.288;12.038;2023-02-18T05:14:06;1028.3243431947528;;;7.292578125;100
61740;BME280;47645;45.288;12.038;2023-02-18T05:24:07;1028.403206190622;;;7.053125;100
61740;BME280;47645;45.288;12.038;2023-02-18T05:34:07;1028.4172872143054;;;7.0888671875;100
61740;BME280;47645;45.288;12.038;2023-02-18T05:44:39;1028.4367416049615;;;7.282421875;100
61740;BME280;47645;45.288;12.038;2023-02-18T05:54:07;1028.3959690419945;;;7.144921875;100
61740;BME280;47645;45.288;12.038;2023-02-18T06:04:09;1028.4416067413176;;;7.3384765625;100
61740;BME280;47645;45.288;12.038;2023-02-18T06:14:08;1028.4504982356461;;;7.486328125;100
61740;BME280;47645;45.288;12.038;2023-02-18T06:24:09;1028.3889292177457;;;7.399609375;100
61740;BME280;47645;45.288;12.038;2023-02-18T06:34:09;1028.587214091004;;;7.2212890625;100
61740;BME280;47645;45.288;12.038;2023-02-18T06:44:10;1028.8788694171765;;;7.4046875;100
61740;BME280;47645;45.288;12.038;2023-02-18T06:54:10;1028.6630772146118;;;7.583203125;100
61740;BME280;47645;45.288;12.038;2023-02-18T07:04:11;1028.7192034021252;;;7.29765625;100
61740;BME280;47645;45.288;12.038;2023-02-18T07:14:11;1028.7516284768806;;;7.06328125;100
61740;BME280;47645;45.288;12.038;2023-02-18T07:24:12;1028.7789581624281;;;7.3181640625;100
61740;BME280;47645;45.288;12.038;2023-02-18T07:34:12;1028.8451952693847;;;7.3232421875;100
61740;BME280;47645;45.288;12.038;2023-02-18T07:44:12;1028.9582935783892;;;7.1958984375;100
61740;BME280;47645;45.288;12.038;2023-02-18T07:54:13;1028.9367710005909;;;7.16015625;100
61740;BME280;47645;45.288;12.038;2023-02-18T08:04:14;1029.0431369126838;;;7.4505859375;100
61740;BME280;47645;45.288;12.038;2023-02-18T08:14:14;1029.107644850916;;;7.4302734375;100
61740;BME280;47645;45.288;12.038;2023-02-18T08:24:14;1029.1019458493718;;;7.4046875;100
61740;BME280;47645;45.288;12.038;2023-02-18T08:34:15;1029.0616648343616;;;7.89921875;100
61740;BME280;47645;45.288;12.038;2023-02-18T08:44:15;1028.967456189981;;;8.0724609375;100
61740;BME280;47645;45.288;12.038;2023-02-18T08:54:16;1029.0520477650475;;;8.14375;100
61740;BME280;47645;45.288;12.038;2023-02-18T09:04:16;1028.9877411051261;;;8.3068359375;100
61740;BME280;47645;45.288;12.038;2023-02-18T09:14:16;1028.865718921702;;;8.051953125;100
61740;BME280;47645;45.288;12.038;2023-02-18T09:24:17;1028.8091586105795;;;8.2203125;100
61740;BME280;47645;45.288;12.038;2023-02-18T09:34:17;1028.7217712458946;;;8.8521484375;100
61740;BME280;47645;45.288;12.038;2023-02-18T09:44:22;1028.6495023760115;;;9.0814453125;100
61740;BME280;47645;45.288;12.038;2023-02-18T09:54:19;1028.6578542685259;;;9.5708984375;100
61740;BME280;47645;45.288;12.038;2023-02-18T10:04:22;1028.7252333568888;;;9.7390625;99.92863436886915
61740;BME280;47645;45.288;12.038;2023-02-18T10:14:19;1028.7728199388348;;;9.98359375;97.313317521863
61740;BME280;47645;45.288;12.038;2023-02-18T10:24:27;1028.84660528296;;;9.7033203125;100
61740;BME280;47645;45.288;12.038;2023-02-18T10:34:29;1028.7566374366197;;;9.96328125;99.11228700668512
61740;BME280;47645;45.288;12.038;2023-02-18T10:44:27;1028.7469337709426;;;9.8001953125;99.8246198018829
61740;BME280;47645;45.288;12.038;2023-02-18T10:54:23;1028.6481318198582;;;10.0498046875;97.48838286669232
61740;BME280;47645;45.288;12.038;2023-02-18T11:04:25;1028.6018144645423;;;9.8306640625;99.0800614547067
61740;BME280;47645;45.288;12.038;2023-02-18T11:14:37;1028.4432473696725;;;10.2078125;96.38480103950147
61740;BME280;47645;45.288;12.038;2023-02-18T11:24:23;1028.2847777286433;;;10.844921875;95.0547302345147
61740;BME280;47645;45.288;12.038;2023-02-18T11:34:26;1027.972220724551;;;11.4462890625;90.12700477470892
61740;BME280;47645;45.288;12.038;2023-02-18T11:44:27;1027.6874598408351;;;11.4208984375;88.51637650587129
61740;BME280;47645;45.288;12.038;2023-02-18T11:54:27;1027.6295502955834;;;12.0478515625;86.85658603932194
61740;BME280;47645;45.288;12.038;2023-02-18T12:04:29;1027.4987579673543;;;12.012109375;85.93977183243419
61740;BME280;47645;45.288;12.038;2023-02-18T12:14:26;1027.3523386722188;;;12.1853515625;84.76879471930279
61740;BME280;47645;45.288;12.038;2023-02-18T12:24:39;1027.2603208075823;;;12.5982421875;82.93673229336561
61740;BME280;47645;45.288;12.038;2023-02-18T12:34:41;1027.1896774553277;;;13.2353515625;80.8087240914835
61740;BME280;47645;45.288;12.038;2023-02-18T12:44:34;1027.0359228477482;;;13.4341796875;77.86261199771333
61740;BME280;47645;45.288;12.038;2023-02-18T12:54:40;1026.963947988731;;;13.9896484375;75.77834326824335
61740;BME280;47645;45.288;12.038;2023-02-18T13:04:39;1026.8424137355298;;;14.76953125;73.54480838028509
61740;BME280;47645;45.288;12.038;2023-02-18T13:14:32;1026.6213080018601;;;15.3607421875;69.69902239009807
61740;BME280;47645;45.288;12.038;2023-02-18T13:24:34;1026.5859683622705;;;14.998828125;70.84295147892036
61740;BME280;47645;45.288;12.038;2023-02-18T13:34:34;1026.3246703091622;;;15.7685546875;67.50238201927297
61740;BME280;47645;45.288;12.038;2023-02-18T13:44:39;1026.1904226585716;;;15.6359375;67.74070872041158
61740;BME280;47645;45.288;12.038;2023-02-18T13:54:37;1026.17460537016;;;15.9060546875;67.25658625739352
61740;BME280;47645;45.288;12.038;2023-02-18T14:04:36;1026.084840254696;;;15.4984375;69.11193133206584
61740;BME280;47645;45.288;12.038;2023-02-18T14:14:37;1026.0214181881754;;;15.182421875;69.50620269310657
61740;BME280;47645;45.288;12.038;2023-02-18T14:24:43;1025.8925185658431;;;14.861328125;71.74265134051211
61740;BME280;47645;45.288;12.038;2023-02-18T14:35:04;1025.861903677747;;;14.2087890625;74.21114659550575
61740;BME280;47645;45.288;12.038;2023-02-18T14:44:46;1025.7141087786972;;;13.2302734375;78.30238065269066
61740;BME280;47645;45.288;12.038;2023-02-18T14:54:38;1025.553381476986;;;13.316796875;80.09736827713186
61740;BME280;47645;45.288;12.038;2023-02-18T15:04:37;1025.5129982507983;;;12.9244140625;82.33997204604186
61740;BME280;47645;45.288;12.038;2023-02-18T15:14:39;1025.4300891706123;;;12.8224609375;82.95288251312
61740;BME280;47645;45.288;12.038;2023-02-18T15:24:39;1025.4653885477796;;;12.098828125;86.58158184839134
61740;BME280;47645;45.288;12.038;2023-02-18T15:34:39;1025.3814683373535;;;12.129296875;86.18260329649516
61740;BME280;47645;45.288;12.038;2023-02-18T15:44:45;1025.340385559606;;;12.098828125;85.91860915538943
61740;BME280;47645;45.288;12.038;2023-02-18T15:54:41;1025.3227108751114;;;11.573828125;90.22960286964327
61740;BME280;47645;45.288;12.038;2023-02-18T16:04:46;1025.3776098446463;;;11.038671875;94.01040785505644
61740;BME280;47645;45.288;12.038;2023-02-18T16:14:45;1025.2901543428752;;;11.048828125;94.06797804915206
61740;BME280;47645;45.288;12.038;2023-02-18T16:24:43;1025.2309062767083;;;10.941796875;94.92848754014358
61740;BME280;47645;45.288;12.038;2023-02-18T16:34:43;1025.2097878649938;;;10.7787109375;94.72426330976064
61740;BME280;47645;45.288;12.038;2023-02-18T16:44:44;1025.2307300580158;;;10.4677734375;96.2201561254885
61740;BME280;47645;45.288;12.038;2023-02-18T16:54:47;1025.2446087318335;;;10.5443359375;90.87830833447711
61740;BME280;47645;45.288;12.038;2023-02-18T17:04:45;1025.235716603802;;;10.600390625;88.4181367895646
61740;BME280;47645;45.288;12.038;2023-02-18T17:14:47;1025.4092342333563;;;10.3505859375;88.92466252834063
61740;BME280;47645;45.288;12.038;2023-02-18T17:24:46;1025.4371425981094;;;10.06015625;89.28254656697129
61740;BME280;47645;45.288;12.038;2023-02-18T17:34:47;1025.4909101173032;;;9.530078125;94.2128541092804
61740;BME280;47645;45.288;12.038;2023-02-18T17:44:47;1025.4648060269808;;;9.4638671875;91.86512205681134
61740;BME280;47645;45.288;12.038;2023-02-18T17:54:48;1025.5501040327417;;;9.4025390625;91.46118247121224
61740;BME280;47645;45.288;12.038;2023-02-18T18:04:48;1025.557954056943;;;9.24453125;91.53419083072318
61740;BME280;47645;45.288;12.038;2023-02-18T18:14:51;1025.5461072529765;;;9.0306640625;92.21966098348287
61740;BME280;47645;45.288;12.038;2023-02-18T18:24:50;1025.4663941273388;;;8.7349609375;93.71256808607022
61740;BME280;47645;45.288;12.038;2023-02-18T18:34:50;1025.5393489168498;;;8.683984375;93.00178113250512
61740;BME280;47645;45.288;12.038;2023-02-18T18:44:50;1025.5594782670087;;;8.5259765625;93.73647928942061
61740;BME280;47645;45.288;12.038;2023-02-18T18:54:51;1025.4918542772887;;;8.4037109375;93.85201299660504
61740;BME280;47645;45.288;12.038;2023-02-18T19:04:51;1025.4608180311693;;;8.240625;94.43954781561281
61740;BME280;47645;45.288;12.038;2023-02-18T19:14:52;1025.3965728340431;;;8.1029296875;94.60413599571264
61740;BME280;47645;45.288;12.038;2023-02-18T19:24:52;1025.4647987892747;;;8.0826171875;94.20535664719291
61740;BME280;47645;45.288;12.038;2023-02-18T19:34:53;1025.4240658929054;;;7.8482421875;95.92625102164347
61740;BME280;47645;45.288;12.038;2023-02-18T19:44:55;1025.4858543628022;;;7.730859375;96.28349800588842
61740;BME280;47645;45.288;12.038;2023-02-18T19:54:54;1025.5877174487168;;;7.7818359375;96.6688646119043
61740;BME280;47645;45.288;12.038;2023-02-18T20:04:55;1025.5441410442777;;;7.8685546875;99.16484560605662
61740;BME280;47645;45.288;12.038;2023-02-18T20:14:55;1025.6181395400379;;;7.680078125;98.12973722433837
61740;BME280;47645;45.288;12.038;2023-02-18T20:24:56;1025.6249782504806;;;7.787109375;97.99663249575502
61740;BME280;47645;45.288;12.038;2023-02-18T20:34:56;1025.702617909477;;;7.91953125;95.34927860734004
61740;BME280;47645;45.288;12.038;2023-02-18T20:44:57;1025.7153890241948;;;7.8482421875;94.88290431852938
61740;BME280;47645;45.288;12.038;2023-02-18T20:54:58;1025.6402148973787;;;7.7666015625;95.92423592064513
61740;BME280;47645;45.288;12.038;2023-02-18T21:04:58;1025.6309870217801;;;7.7462890625;96.62632780664907
61740;BME280;47645;45.288;12.038;2023-02-18T21:14:58;1025.5899673064444;;;7.7818359375;96.16422187176373
61740;BME280;47645;45.288;12.038;2023-02-18T21:24:59;1025.6589031328585;;;7.715625;95.99622530121384
61740;BME280;47645;45.288;12.038;2023-02-18T21:34:59;1025.7098384240337;;;7.680078125;95.55329259636795
61740;BME280;47645;45.288;12.038;2023-02-18T21:45:02;1025.6623580719402;;;7.68515625;100
61740;BME280;47645;45.288;12.038;2023-02-18T21:55:00;1025.627313349152;;;7.7615234375;95.8412683636341
61740;BME280;47645;45.288;12.038;2023-02-18T22:05:01;1025.6238135241756;;;7.7361328125;96.5138523056271
61740;BME280;47645;45.288;12.038;2023-02-18T22:15:04;1025.6131597677177;;;7.715625;96.4247236694541
61740;BME280;47645;45.288;12.038;2023-02-18T22:25:02;1025.6689887072164;;;7.797265625;96.57562121810436
61740;BME280;47645;45.288;12.038;2023-02-18T22:35:03;1025.6198251833887;;;7.730859375;98.65137511432921
61740;BME280;47645;45.288;12.038;2023-02-18T22:45:03;1025.6257860319163;;;7.7666015625;97.12198542630273
61740;BME280;47645;45.288;12.038;2023-02-18T22:50:04;1025.5822695016104;;;7.7564453125;97.74497826305928
61740;BME280;47645;45.288;12.038;2023-02-18T23:00:08;1025.6357166000284;;;7.7666015625;98.63518957209466
61740;BME280;47645;45.288;12.038;2023-02-18T23:10:04;1025.6678183939239;;;7.730859375;97.6036706116121
61740;BME280;47645;45.288;12.038;2023-02-18T23:20:05;1025.6414264979967;;;7.7564453125;99.85914702825147
61740;BME280;47645;45.288;12.038;2023-02-18T23:30:05;1025.623140753088;;;7.6595703125;100
61740;BME280;47645;45.288;12.038;2023-02-18T23:40:07;1025.539507445363;;;7.7818359375;100
61740;BME280;47645;45.288;12.038;2023-02-18T23:50:06;1025.3479033534563;;;7.7564453125;100
